インディラ・ガンディー国際空港の過去48時間の天気

インディラ・ガンディー国際空港 (Delhi / Palam)

現在時刻: 1/26 12:42 IST (1/26 07:12 UTC) 以下の時間は現地時間です。

過去48時間のMETAR気象情報
時間 風向 風速(m/s) 視程 気温(℃) 湿度(%) 気圧(hPa) 天気現象
26 12:30 西 3 1600m 19 52 1016
26 12:00 西南西 3 1500m 18 60 1016
26 11:30 西 3 1300m 17 63 1017
26 11:00 西 3 1300m 15 63 1017
26 10:30 西南西 3 1200m 14 67 1017
26 10:00 西南西 2 1200m 14 67 1017
26 09:30 西 2 900m 12 77 1017 地霧
26 09:00 西南西 3 800m 11 87 1016 地霧
26 08:30 静穏 0 600m 10 87 1016 地霧
26 08:00 静穏 0 600m 9 93 1016 地霧
26 07:30 静穏 0 600m 9 100 1015 地霧
26 07:00 静穏 0 800m 9 100 1015 地霧
26 06:30 静穏 0 800m 9 100 1014 地霧
26 06:00 静穏 0 800m 10 100 1014 地霧
26 05:30 静穏 0 800m 10 100 1014 地霧
26 05:00 西南西 2 800m 10 100 1014 地霧
26 04:30 西南西 2 800m 10 100 1014 地霧
26 04:00 静穏 0 800m 10 100 1014 地霧
26 03:30 静穏 0 800m 10 100 1014 地霧
26 03:00 静穏 0 800m 10 100 1014 地霧
26 02:30 静穏 0 800m 11 94 1014 地霧
26 02:00 静穏 0 1000m 11 94 1015 もや
26 01:30 静穏 0 1000m 11 94 1015 もや
26 01:00 静穏 0 1000m 11 87 1015 もや
26 00:30 静穏 0 1000m 12 82 1015 もや
26 00:00 静穏 0 1000m 12 82 1016 もや
25 23:30 静穏 0 1000m 13 77 1016 もや
25 23:00 静穏 0 1200m 13 77 1016 もや
25 22:30 静穏 0 1500m 13 77 1016 もや
25 22:00 静穏 0 1500m 14 72 1016 煙霧
25 21:30 静穏 0 1500m 14 67 1016 煙霧
25 21:00 静穏 0 1800m 14 63 1016 煙霧
25 20:30 静穏 0 2200m 15 63 1016 煙霧
25 20:00 静穏 0 2500m 16 59 1015 煙霧
25 19:30 北西 2 3000m 17 55 1015 煙霧
25 19:00 西北西 2 3000m 17 52 1015 煙霧
25 18:30 西北西 2 3000m 18 45 1015 煙霧
25 18:00 西北西 2 3000m 18 45 1015 煙霧
25 17:30 西北西 3 3000m 18 45 1015 煙霧
25 17:00 北西 3 3000m 19 40 1014 煙霧
25 16:30 西北西 3 3500m 19 40 1014 煙霧
25 16:00 西北西 2 4000m 19 40 1014 煙霧
25 15:30 西 3 4000m 19 40 1014 煙霧
25 15:00 西 3 3500m 19 37 1015 煙霧
25 14:30 西北西 4 2800m 19 37 1015 煙霧
25 14:00 西北西 3 2500m 19 37 1015 煙霧
25 13:30 北西 3 2000m 19 40 1016 煙霧
25 13:00 西北西 3 2000m 18 42 1017 煙霧
25 12:30 北西 3 2000m 17 45 1017 煙霧
25 12:00 西北西 2 2000m 16 51 1018 煙霧
25 11:30 西北西 2 1500m 15 59 1018 煙霧
25 10:30 西 3 1500m 13 67 1019 煙霧
25 10:00 西南西 2 1500m 12 77 1018 もや
25 09:30 南西 2 1200m 11 87 1018 もや
25 09:00 西南西 2 1200m 10 94 1018 もや
25 08:30 静穏 0 1200m 9 93 1018 もや
25 08:00 西 2 1200m 8 100 1017 もや
25 07:30 静穏 0 1500m 8 100 1017 もや
25 07:00 南西 2 1800m 8 100 1016 もや
25 06:30 静穏 0 2200m 9 87 1015 もや
25 06:00 静穏 0 2200m 9 87 1015 もや
25 05:30 静穏 0 2200m 9 87 1015 もや
25 05:00 静穏 0 2200m 10 82 1016 もや
25 04:30 静穏 0 2200m 10 82 1016 もや
25 04:00 静穏 0 2200m 10 82 1016 もや
25 03:30 静穏 0 2200m 10 82 1016 もや
25 03:00 静穏 0 2200m 10 82 1016 もや
25 02:30 静穏 0 2200m 10 82 1016 もや
25 02:00 静穏 0 2200m 11 76 1017 もや
25 01:30 静穏 0 2500m 12 71 1017 煙霧
25 01:00 静穏 0 2500m 12 71 1017 煙霧
25 00:30 静穏 0 2500m 12 71 1017 煙霧
25 00:00 静穏 0 2500m 12 67 1017 煙霧
24 23:30 静穏 0 2500m 12 67 1017 煙霧
24 23:00 静穏 0 2500m 13 62 1017 煙霧
24 22:30 静穏 0 2500m 13 62 1017 煙霧
24 22:00 静穏 0 3000m 13 58 1017 煙霧
24 21:30 静穏 0 3000m 14 55 1017 煙霧
24 21:00 西北西 2 3000m 14 55 1016 煙霧
24 20:30 西北西 2 3000m 14 55 1016 煙霧
24 20:00 西 2 3000m 14 55 1016 煙霧
24 19:30 西 3 3000m 15 51 1015 煙霧
24 19:00 西 3 3200m 16 48 1015 煙霧
24 18:30 西 3 3500m 16 48 1014 煙霧
24 18:00 西南西 3 4000m 17 45 1014 煙霧
24 17:30 西南西 4 4000m 18 42 1014 煙霧
24 17:00 西 5 4000m 19 40 1014 煙霧
24 16:30 西 6 4000m 19 40 1014 煙霧
24 16:00 西 7 4000m 19 40 1014 煙霧
24 15:30 西 3 4000m 20 37 1014 煙霧
24 15:00 西 3 4000m 20 37 1014 煙霧
24 14:30 西 3 4000m 19 37 1014 煙霧
24 14:00 西 3 4000m 19 37 1014 煙霧
24 13:30 西 4 3500m 18 39 1015 煙霧
24 13:00 西 3 3500m 18 39 1015 煙霧
VIDP 260700Z 26006KT 1600 R28/1800 R29/1800 FU NSC 19/09 Q1016 NOSIG
VIDP 260630Z 25005KT 1500 R28/1700 R29/2000 FU NSC 18/10 Q1016 NOSIG
VIDP 260600Z 27006KT 1300 R28/1600 R29/2000 FU NSC 17/10 Q1017 BECMG 1500 FU
VIDP 260530Z 26005KT 1300 R28/1600 R29/2000 FU NSC 15/08 Q1017 BECMG 1500 FU
VIDP 260500Z 25005KT 1200 R28/1400 R29/2000 FU NSC 14/08 Q1017 NOSIG
VIDP 260430Z 25004KT 1200 R28/1400 R29/2000 FU NSC 14/08 Q1017 NOSIG
VIDP 260400Z 26004KT 0900 R28/1300 R29/2000 MIFG NSC 12/08 Q1017 NOSIG
VIDP 260330Z 24005KT 0800 R28/1400 R29/2000 MIFG NSC 11/09 Q1016 NOSIG
VIDP 260300Z 00000KT 0600 R28/1200 R29/1500 MIFG NSC 10/08 Q1016 BECMG 0800 MIFG
VIDP 260230Z 00000KT 0600 R28/1300 R29/1600 MIFG NSC 09/08 Q1016 NOSIG
VIDP 260200Z 00000KT 0600 R28/1600 R29/1800 MIFG NSC 09/09 Q1015 NOSIG
VIDP 260130Z 00000KT 0800 R28/P2000 R29/P2000 MIFG FEW100 09/09 Q1015 TEMPO 0600 MIFG
VIDP 260100Z 00000KT 0800 R28/P2000 R29/P2000 MIFG FEW100 09/09 Q1014 TEMPO 0600 MIFG
VIDP 260030Z 00000KT 0800 R28/P2000 R29/P2000 MIFG FEW100 10/10 Q1014 NOSIG
VIDP 260000Z 00000KT 0800 R28/P2000 R29/P2000 MIFG FEW100 10/10 Q1014 NOSIG
VIDP 252330Z 25004KT 0800 R28/P2000 R29/P2000 MIFG FEW100 10/10 Q1014 NOSIG
VIDP 252300Z 25004KT 0800 R28/P2000 R29/P2000 MIFG FEW100 10/10 Q1014 NOSIG
VIDP 252230Z 00000KT 0800 R28/P2000 R29/P2000 MIFG FEW100 10/10 Q1014 NOSIG
VIDP 252200Z 00000KT 0800 R28/P2000 R29/P2000 MIFG FEW100 10/10 Q1014 NOSIG
VIDP 252130Z 00000KT 0800 R28/P2000 R29/P2000 MIFG FEW100 10/10 Q1014 NOSIG
VIDP 252100Z 00000KT 0800 R28/P2000 R29/P2000 MIFG FEW100 11/10 Q1014 NOSIG
VIDP 252030Z 00000KT 1000 R28/P2000 R29/P2000 BR FEW100 11/10 Q1015 BECMG 0800 MIFG
VIDP 252000Z 00000KT 1000 R28/P2000 R29/P2000 BR FEW100 11/10 Q1015 BECMG 0800 MIFG
VIDP 251930Z 00000KT 1000 R28/P2000 R29/P2000 BR FEW100 11/09 Q1015 BECMG 0800 MIFG
VIDP 251900Z 00000KT 1000 R28/P2000 R29/P2000 BR FEW100 12/09 Q1015 BECMG 0800 MIFG
VIDP 251830Z 00000KT 1000 R28/P2000 R29/P2000 BR FEW100 12/09 Q1016 NOSIG
VIDP 251800Z 00000KT 1000 R28/P2000 R29/P2000 BR FEW100 13/09 Q1016 NOSIG
VIDP 251730Z 00000KT 1200 R28/P2000 R29/P2000 BR FEW100 13/09 Q1016 NOSIG
VIDP 251700Z 00000KT 1500 R28/P2000 R29/P2000 BR FEW100 13/09 Q1016 NOSIG
VIDP 251630Z 00000KT 1500 R28/P2000 R29/P2000 HZ FEW100 14/09 Q1016 NOSIG
VIDP 251600Z 00000KT 1500 R28/P2000 R29/P2000 HZ FEW100 14/08 Q1016 NOSIG
VIDP 251530Z 00000KT 1800 R28/P2000 R29/P2000 HZ FEW100 14/07 Q1016 BECMG 1500 HZ
VIDP 251500Z 00000KT 2200 HZ FEW100 15/08 Q1016 NOSIG
VIDP 251430Z 00000KT 2500 HZ FEW100 16/08 Q1015 NOSIG
VIDP 251400Z 31004KT 3000 HZ SCT100 17/08 Q1015 NOSIG
VIDP 251330Z 30004KT 3000 HZ SCT100 17/07 Q1015 NOSIG
VIDP 251300Z 30004KT 3000 HZ SCT100 18/06 Q1015 NOSIG
VIDP 251230Z 29004KT 3000 HZ SCT100 18/06 Q1015 NOSIG
VIDP 251200Z 30005KT 3000 HZ SCT100 18/06 Q1015 NOSIG
VIDP 251130Z 31006KT 3000 HZ FEW100 19/05 Q1014 NOSIG
VIDP 251100Z 30006KT 3500 HZ FEW100 19/05 Q1014 BECMG 3000
VIDP 251030Z 29004KT 4000 HZ FEW100 19/05 Q1014 NOSIG
VIDP 251000Z 28005KT 4000 HZ FEW100 19/05 Q1014 NOSIG
VIDP 250930Z 28006KT 3500 HZ FEW100 19/04 Q1015 NOSIG
VIDP 250900Z 30007KT 2800 HZ FEW100 19/04 Q1015 BECMG 3000 HZ
VIDP 250830Z 30005KT 2500 HZ NSC 19/04 Q1015 NOSIG
VIDP 250800Z 31005KT 2000 HZ NSC 19/05 Q1016 NOSIG
VIDP 250730Z 30005KT 2000 HZ NSC 18/05 Q1017 NOSIG
VIDP 250700Z 32005KT 2000 HZ NSC 17/05 Q1017 NOSIG
VIDP 250630Z 30004KT 2000 HZ NSC 16/06 Q1018 NOSIG
VIDP 250600Z 30004KT 1500 R28/P2000 R29/P2000 HZ NSC 15/07 Q1018 NOSIG
VIDP 250500Z 28005KT 1500 R28/1900 R29/P2000 HZ NSC 13/07 Q1019 NOSIG
VIDP 250430Z 25004KT 1500 R28/1600 R29/P2000 BR NSC 12/08 Q1018 NOSIG
VIDP 250400Z 23004KT 1200 R28/1700 R29/P2000 BR NSC 11/09 Q1018 BECMG 1500 BR
VIDP 250330Z 24004KT 1200 R28/1600 R29/P2000 BR NSC 10/09 Q1018 NOSIG
VIDP 250300Z 00000KT 1200 R28/1500 R29/P2000 BR NSC 09/08 Q1018 NOSIG
VIDP 250230Z 26003KT 1200 R28/1500 R29/P2000 BR NSC 08/08 Q1017 NOSIG
VIDP 250200Z 00000KT 1500 R28/P2000 R29/P2000 BR NSC 08/08 Q1017 NOSIG
VIDP 250130Z 23004KT 1800 R28/P2000 R29/P2000 BR NSC 08/08 Q1016 BECMG 1500 BR
VIDP 250100Z 00000KT 2200 BR NSC 09/07 Q1015 NOSIG
VIDP 250030Z 00000KT 2200 BR NSC 09/07 Q1015 NOSIG
VIDP 250000Z 00000KT 2200 BR NSC 09/07 Q1015 NOSIG
VIDP 242330Z 00000KT 2200 BR NSC 10/07 Q1016 NOSIG
VIDP 242300Z 00000KT 2200 BR NSC 10/07 Q1016 NOSIG
VIDP 242230Z 00000KT 2200 BR NSC 10/07 Q1016 NOSIG
VIDP 242200Z 00000KT 2200 BR NSC 10/07 Q1016 NOSIG
VIDP 242130Z 00000KT 2200 BR NSC 10/07 Q1016 NOSIG
VIDP 242100Z 00000KT 2200 BR NSC 10/07 Q1016 NOSIG
VIDP 242030Z 00000KT 2200 BR NSC 11/07 Q1017 NOSIG
VIDP 242000Z 00000KT 2500 HZ NSC 12/07 Q1017 NOSIG
VIDP 241930Z 00000KT 2500 HZ NSC 12/07 Q1017 NOSIG
VIDP 241900Z 00000KT 2500 HZ NSC 12/07 Q1017 NOSIG
VIDP 241830Z 00000KT 2500 HZ NSC 12/06 Q1017 NOSIG
VIDP 241800Z 00000KT 2500 HZ NSC 12/06 Q1017 NOSIG
VIDP 241730Z 00000KT 2500 HZ NSC 13/06 Q1017 NOSIG
VIDP 241700Z 00000KT 2500 HZ NSC 13/06 Q1017 NOSIG
VIDP 241630Z 00000KT 3000 HZ NSC 13/05 Q1017 NOSIG
VIDP 241600Z 00000KT 3000 HZ NSC 14/05 Q1017 NOSIG
VIDP 241530Z 29003KT 3000 HZ NSC 14/05 Q1016 NOSIG
VIDP 241500Z 29004KT 3000 HZ NSC 14/05 Q1016 NOSIG
VIDP 241430Z 27004KT 3000 HZ NSC 14/05 Q1016 NOSIG
VIDP 241400Z 27006KT 3000 HZ NSC 15/05 Q1015 NOSIG
VIDP 241330Z 26005KT 3200 HZ NSC 16/05 Q1015 BECMG 3000 HZ
VIDP 241300Z 27005KT 3500 HZ NSC 16/05 Q1014 NOSIG
VIDP 241230Z 25006KT 4000 HZ FEW100 17/05 Q1014 NOSIG
VIDP 241200Z 25008KT 4000 HZ FEW100 18/05 Q1014 NOSIG
VIDP 241130Z 26009KT 4000 HZ FEW100 19/05 Q1014 NOSIG
VIDP 241100Z 28012KT 4000 HZ SCT100 19/05 Q1014 NOSIG
VIDP 241030Z 26013KT 4000 HZ SCT100 19/05 Q1014 NOSIG
VIDP 241000Z 27006G16KT 4000 HZ SCT100 20/05 Q1014 NOSIG
VIDP 240930Z 26006G16KT 4000 HZ SCT100 20/05 Q1014 NOSIG
VIDP 240900Z 26005G15KT 4000 HZ SCT100 19/04 Q1014 NOSIG
VIDP 240830Z 26005G15KT 4000 HZ SCT100 19/04 Q1014 NOSIG
VIDP 240800Z 28007G17KT 3500 HZ SCT100 18/04 Q1015 NOSIG
VIDP 240730Z 28006G16KT 3500 HZ SCT100 18/04 Q1015 NOSIG